createdAt,value
2019-05-09T00:00:49.867Z,88.57
2019-05-09T00:01:50.130Z,89.66
2019-05-09T00:02:50.273Z,89.66
2019-05-09T00:03:50.460Z,90.83
2019-05-09T00:04:50.663Z,90.42
2019-05-09T00:05:50.842Z,89.90
2019-05-09T00:06:51.094Z,89.70
2019-05-09T00:07:53.088Z,89.09
2019-05-09T00:08:53.229Z,88.37
2019-05-09T00:09:53.346Z,89.36
2019-05-09T00:10:53.454Z,89.25
2019-05-09T00:11:53.156Z,89.66
2019-05-09T00:12:54.047Z,88.43
2019-05-09T00:13:53.815Z,88.43
2019-05-09T00:14:53.969Z,89.09
2019-05-09T00:15:54.240Z,88.57
2019-05-09T00:16:53.978Z,88.37
2019-05-09T00:17:53.363Z,88.43
2019-05-09T00:18:54.384Z,88.68
2019-05-09T00:19:53.959Z,89.60
2019-05-09T00:20:54.792Z,89.70
2019-05-09T00:21:54.144Z,89.60
2019-05-09T00:22:55.098Z,90.62
2019-05-09T00:23:54.280Z,90.11
2019-05-09T00:24:54.377Z,90.77
2019-05-09T00:25:54.605Z,89.84
2019-05-09T00:26:54.765Z,90.16
2019-05-09T00:27:54.944Z,91.38
2019-05-09T00:28:55.103Z,90.87
2019-05-09T00:29:55.256Z,90.77
2019-05-09T00:30:55.455Z,91.28
2019-05-09T00:31:55.665Z,90.56
2019-05-09T00:32:55.918Z,89.75
2019-05-09T00:33:55.943Z,89.84
2019-05-09T00:34:56.081Z,90.16
2019-05-09T00:35:56.240Z,89.64
2019-05-09T00:36:56.419Z,90.36
2019-05-09T00:37:56.612Z,89.84
2019-05-09T00:38:56.771Z,89.75
2019-05-09T00:39:57.005Z,89.84
2019-05-09T00:40:59.056Z,89.54
2019-05-09T00:41:58.404Z,89.54
2019-05-09T00:42:57.568Z,89.54
2019-05-09T00:43:57.766Z,89.75
2019-05-09T00:44:57.946Z,91.08
2019-05-09T00:45:58.116Z,90.26
2019-05-09T00:46:58.313Z,90.77
2019-05-09T00:47:58.476Z,90.05
2019-05-09T00:48:58.723Z,90.56
2019-05-09T00:49:58.795Z,90.05
2019-05-09T00:50:59.015Z,90.16
2019-05-09T00:51:59.194Z,90.67
2019-05-09T00:52:59.392Z,90.87
2019-05-09T00:53:59.605Z,89.75
2019-05-09T00:54:59.833Z,89.75
2019-05-09T00:56:00.004Z,89.54
2019-05-09T00:57:00.155Z,89.43
2019-05-09T00:58:00.302Z,90.97
2019-05-09T00:59:00.548Z,89.23
2019-05-09T01:00:00.606Z,89.54
2019-05-09T01:01:00.791Z,90.16
2019-05-09T01:02:00.942Z,89.60
2019-05-09T01:03:03.414Z,89.75
2019-05-09T01:04:01.305Z,90.77
2019-05-09T01:05:04.012Z,89.75
2019-05-09T01:06:03.716Z,89.64
2019-05-09T01:07:03.441Z,88.47
2019-05-09T01:08:04.083Z,88.41
2019-05-09T01:09:04.222Z,88.82
2019-05-09T01:10:04.306Z,88.78
2019-05-09T01:11:11.771Z,89.60
2019-05-09T01:12:04.634Z,90.87
2019-05-09T01:13:03.852Z,89.95
2019-05-09T01:14:03.641Z,89.70
2019-05-09T01:15:04.038Z,89.64
2019-05-09T01:16:04.569Z,89.54
2019-05-09T01:17:04.459Z,89.33
2019-05-09T01:18:04.379Z,89.54
2019-05-09T01:19:04.847Z,90.05
2019-05-09T01:20:04.055Z,89.64
2019-05-09T01:21:04.262Z,90.97
2019-05-09T01:22:04.458Z,89.54
2019-05-09T01:23:04.667Z,88.51
2019-05-09T01:24:04.913Z,89.13
2019-05-09T01:25:05.125Z,89.13
2019-05-09T01:26:05.323Z,89.43
2019-05-09T01:27:05.569Z,88.62
2019-05-09T01:28:05.665Z,89.33
2019-05-09T01:29:05.853Z,89.33
2019-05-09T01:30:06.058Z,90.09
2019-05-09T01:31:06.322Z,88.62
2019-05-09T01:32:06.560Z,89.69
2019-05-09T01:33:06.654Z,89.89
2019-05-09T01:34:06.861Z,89.78
2019-05-09T01:35:07.109Z,89.89
2019-05-09T01:36:07.354Z,90.20
2019-05-09T01:37:07.585Z,89.78
2019-05-09T01:38:07.789Z,89.78
2019-05-09T01:39:07.978Z,89.58
2019-05-09T01:40:08.195Z,90.09
2019-05-09T01:41:23.637Z,89.83
2019-05-09T01:42:09.546Z,89.83
2019-05-09T01:43:08.735Z,89.52
2019-05-09T01:44:08.926Z,90.03
2019-05-09T01:45:09.146Z,91.06
2019-05-09T01:46:09.298Z,91.00
2019-05-09T01:47:09.494Z,91.00
2019-05-09T01:48:09.650Z,91.93
2019-05-09T01:49:09.867Z,91.00
2019-05-09T01:50:10.026Z,90.69
2019-05-09T01:51:10.164Z,91.20
2019-05-09T01:52:10.350Z,90.59
2019-05-09T01:53:10.502Z,91.41
2019-05-09T01:54:10.668Z,91.00
2019-05-09T01:55:10.828Z,91.04
2019-05-09T01:56:10.981Z,91.00
2019-05-09T01:57:11.227Z,91.25
2019-05-09T01:58:11.308Z,91.35
2019-05-09T01:59:13.538Z,90.94
2019-05-09T02:00:13.252Z,91.66
2019-05-09T02:01:13.496Z,91.70
2019-05-09T02:02:14.219Z,90.88
2019-05-09T02:03:13.980Z,90.08
2019-05-09T02:04:13.836Z,90.94
2019-05-09T02:05:13.645Z,89.81
2019-05-09T02:06:13.640Z,89.87
2019-05-09T02:07:13.973Z,90.22
2019-05-09T02:08:14.302Z,90.28
2019-05-09T02:09:14.272Z,90.63
2019-05-09T02:10:13.990Z,90.22
2019-05-09T02:11:14.591Z,89.81
2019-05-09T02:12:14.170Z,90.22
2019-05-09T02:13:14.988Z,90.53
2019-05-09T02:14:14.116Z,89.81
2019-05-09T02:15:14.304Z,90.63
2019-05-09T02:16:14.468Z,90.22
2019-05-09T02:17:14.692Z,90.32
2019-05-09T02:18:14.874Z,90.01
2019-05-09T02:19:15.028Z,90.73
2019-05-09T02:20:15.179Z,89.70
2019-05-09T02:21:15.352Z,89.91
2019-05-09T02:22:15.546Z,90.22
2019-05-09T02:23:15.781Z,89.95
2019-05-09T02:24:15.946Z,91.14
2019-05-09T02:25:16.115Z,89.60
2019-05-09T02:26:16.296Z,90.01
2019-05-09T02:27:16.479Z,90.73
2019-05-09T02:28:16.708Z,89.75
2019-05-09T02:29:16.877Z,90.12
2019-05-09T02:30:17.054Z,90.73
2019-05-09T02:31:17.257Z,91.70
2019-05-09T02:32:17.413Z,90.88
2019-05-09T02:33:17.591Z,90.78
2019-05-09T02:34:17.733Z,90.42
2019-05-09T02:35:17.917Z,89.81
2019-05-09T02:36:19.120Z,89.91
2019-05-09T02:37:19.204Z,90.16
2019-05-09T02:38:19.962Z,89.60
2019-05-09T02:39:19.521Z,89.81
2019-05-09T02:40:18.935Z,89.09
2019-05-09T02:41:20.076Z,88.57
2019-05-09T02:42:19.754Z,88.53
2019-05-09T02:43:20.142Z,89.81
2019-05-09T02:44:19.834Z,88.84
2019-05-09T02:45:20.504Z,89.09
2019-05-09T02:46:19.674Z,89.60
2019-05-09T02:47:19.843Z,88.53
2019-05-09T02:48:20.026Z,88.64
2019-05-09T02:49:20.203Z,88.33
2019-05-09T02:50:20.380Z,88.12
2019-05-09T02:51:20.580Z,88.78
2019-05-09T02:52:20.776Z,88.74
2019-05-09T02:53:20.953Z,89.09
2019-05-09T02:54:21.109Z,88.84
2019-05-09T02:55:22.288Z,88.84
2019-05-09T02:56:21.459Z,88.64
2019-05-09T02:57:21.625Z,88.84
2019-05-09T02:58:21.744Z,87.40
2019-05-09T02:59:21.917Z,88.43
2019-05-09T03:00:22.095Z,87.51
2019-05-09T03:01:22.270Z,89.04
2019-05-09T03:02:22.450Z,87.10
2019-05-09T03:03:22.584Z,87.92
2019-05-09T03:04:22.698Z,87.82
2019-05-09T03:05:22.879Z,87.61
2019-05-09T03:06:23.035Z,88.33
2019-05-09T03:07:23.203Z,87.71
2019-05-09T03:08:23.354Z,88.12
2019-05-09T03:09:23.504Z,88.95
2019-05-09T03:10:23.661Z,88.84
2019-05-09T03:11:23.808Z,88.64
2019-05-09T03:12:34.479Z,88.33
2019-05-09T03:13:28.851Z,88.74
2019-05-09T03:14:24.197Z,88.84
2019-05-09T03:15:24.385Z,88.95
2019-05-09T03:16:24.543Z,88.33
2019-05-09T03:17:28.066Z,89.46
2019-05-09T03:18:24.878Z,88.64
2019-05-09T03:19:25.083Z,88.84
2019-05-09T03:20:25.247Z,88.64
2019-05-09T03:21:25.421Z,90.18
2019-05-09T03:22:25.589Z,88.64
2019-05-09T03:23:28.513Z,89.76
2019-05-09T03:24:28.573Z,89.56
2019-05-09T03:25:28.895Z,89.76
2019-05-09T03:26:29.270Z,88.95
2019-05-09T03:27:28.699Z,89.97
2019-05-09T03:28:28.327Z,88.95
2019-05-09T03:29:29.151Z,89.56
2019-05-09T03:30:29.098Z,89.66
2019-05-09T03:31:29.826Z,88.84
2019-05-09T03:32:29.656Z,89.87
2019-05-09T03:33:30.821Z,88.84
2019-05-09T03:34:30.358Z,89.66
2019-05-09T03:35:28.876Z,89.87
2019-05-09T03:36:28.195Z,89.76
2019-05-09T03:37:29.177Z,89.56
2019-05-09T03:38:28.494Z,88.74
2019-05-09T03:39:29.513Z,89.04
2019-05-09T03:40:28.641Z,89.87
2019-05-09T03:41:28.806Z,90.08
2019-05-09T03:42:39.629Z,89.15
2019-05-09T03:43:31.076Z,89.60
2019-05-09T03:44:29.311Z,89.46
2019-05-09T03:45:29.455Z,90.28
2019-05-09T03:46:29.597Z,89.46
2019-05-09T03:47:29.780Z,89.87
2019-05-09T03:48:29.969Z,89.91
2019-05-09T03:49:30.148Z,89.70
2019-05-09T03:50:30.306Z,89.60
2019-05-09T03:51:30.492Z,89.29
2019-05-09T03:52:30.633Z,90.73
2019-05-09T03:53:30.781Z,89.81
2019-05-09T03:54:31.006Z,88.68
2019-05-09T03:55:31.156Z,88.84
2019-05-09T03:56:31.338Z,89.36
2019-05-09T03:57:31.486Z,89.87
2019-05-09T03:58:31.703Z,89.81
2019-05-09T03:59:31.856Z,90.28
2019-05-09T04:00:32.022Z,90.01
2019-05-09T04:01:32.195Z,89.81
2019-05-09T04:02:32.437Z,88.64
2019-05-09T04:03:32.584Z,88.12
2019-05-09T04:04:32.761Z,88.64
2019-05-09T04:05:32.935Z,88.53
2019-05-09T04:06:33.150Z,88.95
2019-05-09T04:07:33.356Z,88.43
2019-05-09T04:08:33.539Z,88.23
2019-05-09T04:09:33.696Z,88.78
2019-05-09T04:10:33.895Z,89.04
2019-05-09T04:11:34.110Z,88.95
2019-05-09T04:12:34.329Z,88.84
2019-05-09T04:13:34.509Z,89.76
2019-05-09T04:14:34.718Z,88.17
2019-05-09T04:15:34.874Z,88.06
2019-05-09T04:16:35.079Z,88.12
2019-05-09T04:17:35.244Z,88.23
2019-05-09T04:18:35.415Z,87.30
2019-05-09T04:19:35.557Z,87.61
2019-05-09T04:20:37.690Z,87.34
2019-05-09T04:21:38.178Z,86.89
2019-05-09T04:22:38.196Z,87.30
2019-05-09T04:23:37.871Z,87.92
2019-05-09T04:24:38.193Z,87.85
2019-05-09T04:25:37.725Z,88.89
2019-05-09T04:26:38.143Z,89.19
2019-05-09T04:27:37.945Z,89.13
2019-05-09T04:28:39.719Z,88.98
2019-05-09T04:29:38.227Z,89.23
2019-05-09T04:30:37.388Z,89.85
2019-05-09T04:31:38.584Z,89.85
2019-05-09T04:32:37.779Z,89.85
2019-05-09T04:33:38.985Z,89.75
2019-05-09T04:34:38.269Z,91.08
2019-05-09T04:35:38.351Z,90.06
2019-05-09T04:36:39.576Z,91.33
2019-05-09T04:37:38.724Z,90.41
2019-05-09T04:38:40.023Z,90.88
2019-05-09T04:39:40.743Z,90.41
2019-05-09T04:40:44.720Z,90.92
2019-05-09T04:41:41.409Z,91.02
2019-05-09T04:42:43.047Z,91.13
2019-05-09T04:43:40.707Z,90.41
2019-05-09T04:44:39.972Z,90.06
2019-05-09T04:45:41.855Z,90.26
2019-05-09T04:46:41.204Z,89.69
2019-05-09T04:47:43.493Z,91.33
2019-05-09T04:48:41.603Z,89.95
2019-05-09T04:49:44.972Z,91.44
2019-05-09T04:50:41.849Z,90.78
2019-05-09T04:51:40.949Z,90.98
2019-05-09T04:52:41.144Z,91.08
2019-05-09T04:53:41.263Z,90.26
2019-05-09T04:54:41.490Z,90.06
2019-05-09T04:55:41.624Z,89.75
2019-05-09T04:56:41.759Z,89.75
2019-05-09T04:57:41.972Z,89.64
2019-05-09T04:58:42.101Z,90.36
2019-05-09T04:59:42.229Z,89.60
2019-05-09T05:00:42.443Z,90.01
2019-05-09T05:01:42.606Z,90.12
2019-05-09T05:02:42.753Z,90.22
2019-05-09T05:03:42.906Z,88.98
2019-05-09T05:04:43.077Z,90.01
2019-05-09T05:05:43.242Z,89.56
2019-05-09T05:06:43.382Z,89.04
2019-05-09T05:07:43.557Z,88.84
2019-05-09T05:08:43.710Z,88.43
2019-05-09T05:09:43.898Z,88.95
2019-05-09T05:10:44.106Z,87.88
2019-05-09T05:11:46.530Z,87.92
2019-05-09T05:12:45.433Z,87.98
2019-05-09T05:13:44.675Z,88.76
2019-05-09T05:14:44.836Z,87.22
2019-05-09T05:15:45.036Z,86.19
2019-05-09T05:16:45.187Z,86.40
2019-05-09T05:17:47.596Z,86.71
2019-05-09T05:18:47.675Z,85.85
2019-05-09T05:19:47.602Z,85.54
2019-05-09T05:20:48.078Z,85.95
2019-05-09T05:21:48.010Z,85.85
2019-05-09T05:22:47.808Z,85.30
2019-05-09T05:23:47.409Z,86.01
2019-05-09T05:24:48.834Z,85.19
2019-05-09T05:25:47.579Z,86.01
2019-05-09T05:26:48.543Z,84.99
2019-05-09T05:27:48.155Z,84.47
2019-05-09T05:28:47.530Z,85.66
2019-05-09T05:29:47.668Z,83.82
2019-05-09T05:30:48.628Z,84.23
2019-05-09T05:31:47.884Z,83.51
2019-05-09T05:32:48.946Z,84.84
2019-05-09T05:33:51.229Z,84.95
2019-05-09T05:34:50.215Z,84.09
2019-05-09T05:35:48.335Z,84.23
2019-05-09T05:36:48.590Z,84.74
2019-05-09T05:37:48.614Z,85.36
2019-05-09T05:38:48.758Z,83.76
2019-05-09T05:39:48.920Z,84.06
2019-05-09T05:40:49.893Z,85.39
2019-05-09T05:41:50.298Z,85.64
2019-05-09T05:42:49.466Z,85.23
2019-05-09T05:43:49.628Z,84.52
2019-05-09T05:44:49.887Z,85.74
2019-05-09T05:45:50.040Z,85.74
2019-05-09T05:46:50.937Z,86.22
2019-05-09T05:47:51.364Z,86.01
2019-05-09T05:48:50.586Z,85.80
2019-05-09T05:49:50.702Z,84.88
2019-05-09T05:50:50.876Z,85.39
2019-05-09T05:51:51.039Z,86.01
2019-05-09T05:52:51.221Z,86.01
2019-05-09T05:53:51.417Z,84.99
2019-05-09T05:54:51.597Z,85.39
2019-05-09T05:55:52.796Z,84.78
2019-05-09T05:56:52.936Z,85.05
2019-05-09T05:57:52.044Z,85.56
2019-05-09T05:58:52.198Z,85.05
2019-05-09T05:59:52.316Z,84.53
2019-05-09T06:00:52.468Z,85.87
2019-05-09T06:01:52.614Z,84.53
2019-05-09T06:02:52.772Z,84.44
2019-05-09T06:03:52.930Z,84.23
2019-05-09T06:04:53.108Z,85.46
2019-05-09T06:05:53.264Z,85.66
2019-05-09T06:06:53.425Z,85.46
2019-05-09T06:07:53.578Z,84.84
2019-05-09T06:08:53.718Z,85.56
2019-05-09T06:09:53.870Z,83.98
2019-05-09T06:10:54.067Z,83.17
2019-05-09T06:11:54.219Z,83.98
2019-05-09T06:12:57.372Z,82.86
2019-05-09T06:14:01.622Z,83.13
2019-05-09T06:14:58.219Z,83.37
2019-05-09T06:15:58.447Z,83.33
2019-05-09T06:16:55.149Z,82.41
2019-05-09T06:17:57.661Z,82.00
2019-05-09T06:18:57.731Z,82.00
2019-05-09T06:19:55.606Z,82.31
2019-05-09T06:20:58.147Z,82.27
2019-05-09T06:21:57.407Z,82.07
2019-05-09T06:22:58.247Z,82.89
2019-05-09T06:23:58.446Z,83.05
2019-05-09T06:24:58.274Z,81.82
2019-05-09T06:25:58.742Z,81.10
2019-05-09T06:26:58.655Z,81.41
2019-05-09T06:27:58.540Z,81.41
2019-05-09T06:28:58.147Z,81.31
2019-05-09T06:29:58.142Z,80.90
2019-05-09T06:30:58.717Z,81.79
2019-05-09T06:31:58.753Z,80.49
2019-05-09T06:32:58.215Z,79.98
2019-05-09T06:33:59.079Z,81.93
2019-05-09T06:34:58.215Z,80.08
2019-05-09T06:35:59.027Z,80.69
2019-05-09T06:37:02.980Z,81.88
2019-05-09T06:37:59.166Z,81.03
2019-05-09T06:38:59.127Z,79.84
2019-05-09T06:39:59.223Z,80.11
2019-05-09T06:40:59.385Z,79.50
2019-05-09T06:41:59.569Z,79.50
2019-05-09T06:43:00.268Z,79.39
2019-05-09T06:44:13.619Z,80.73
2019-05-09T06:45:02.099Z,79.66
2019-05-09T06:46:00.444Z,77.97
2019-05-09T06:47:00.512Z,79.80
2019-05-09T06:48:00.712Z,78.95
2019-05-09T06:49:20.591Z,78.54
2019-05-09T06:50:03.095Z,76.77
2019-05-09T06:51:01.242Z,78.75
2019-05-09T06:52:01.425Z,78.81
2019-05-09T06:53:01.626Z,78.44
2019-05-09T06:54:01.803Z,79.12
2019-05-09T06:55:01.980Z,78.37
2019-05-09T06:56:02.164Z,77.86
2019-05-09T06:57:02.365Z,77.51
2019-05-09T06:58:02.601Z,75.98
2019-05-09T06:59:02.778Z,75.71
2019-05-09T07:00:02.994Z,76.84
2019-05-09T07:01:03.301Z,77.65
2019-05-09T07:02:03.319Z,78.43
2019-05-09T07:03:03.542Z,77.48
2019-05-09T07:04:03.771Z,76.90
2019-05-09T07:05:03.956Z,76.05
2019-05-09T07:06:04.172Z,75.13
2019-05-09T07:07:04.373Z,75.98
2019-05-09T07:08:23.476Z,75.78
2019-05-09T07:09:04.817Z,76.76
2019-05-09T07:10:07.445Z,75.13
2019-05-09T07:11:07.428Z,76.09
2019-05-09T07:12:07.657Z,75.57
2019-05-09T07:13:07.751Z,74.66
2019-05-09T07:14:05.742Z,75.07
2019-05-09T07:15:08.574Z,74.45
2019-05-09T07:16:06.136Z,75.98
2019-05-09T07:17:08.368Z,75.34
2019-05-09T07:18:08.133Z,75.95
2019-05-09T07:19:08.108Z,73.60
2019-05-09T07:20:08.602Z,74.21
2019-05-09T07:21:08.361Z,74.42
2019-05-09T07:22:09.067Z,74.38
2019-05-09T07:23:09.170Z,72.99
2019-05-09T07:24:08.592Z,74.25
2019-05-09T07:25:11.095Z,75.51
2019-05-09T07:26:08.943Z,77.21
2019-05-09T07:27:08.094Z,75.37
2019-05-09T07:28:08.251Z,75.61
2019-05-09T07:29:08.433Z,76.22
2019-05-09T07:30:08.656Z,76.77
2019-05-09T07:31:11.556Z,75.75
2019-05-09T07:32:09.026Z,77.11
2019-05-09T07:33:09.243Z,76.40
2019-05-09T07:34:09.438Z,77.22
2019-05-09T07:35:09.620Z,77.22
2019-05-09T07:36:09.812Z,75.89
2019-05-09T07:37:09.984Z,76.94
2019-05-09T07:38:10.244Z,77.15
2019-05-09T07:39:10.296Z,78.48
2019-05-09T07:40:10.470Z,79.36
2019-05-09T07:41:10.727Z,78.58
2019-05-09T07:42:10.770Z,78.17
2019-05-09T07:43:10.990Z,77.86
2019-05-09T07:44:11.173Z,77.56
2019-05-09T07:45:11.355Z,77.42
2019-05-09T07:46:11.591Z,76.60
2019-05-09T07:47:11.669Z,75.17
2019-05-09T07:48:11.848Z,74.87
2019-05-09T07:49:12.015Z,74.42
2019-05-09T07:50:12.229Z,75.75
2019-05-09T07:51:12.462Z,75.10
2019-05-09T07:52:12.609Z,74.15
2019-05-09T07:53:12.836Z,73.74
2019-05-09T07:54:21.995Z,74.76
2019-05-09T07:55:15.142Z,74.55
2019-05-09T07:56:13.277Z,74.76
2019-05-09T07:57:13.502Z,74.55
2019-05-09T07:58:14.442Z,74.93
2019-05-09T07:59:14.806Z,73.40
2019-05-09T08:00:13.948Z,73.47
2019-05-09T08:01:14.139Z,74.32
2019-05-09T08:02:14.336Z,71.26
2019-05-09T08:03:14.413Z,71.09
2019-05-09T08:04:14.709Z,71.73
2019-05-09T08:05:16.851Z,74.35
2019-05-09T08:06:15.048Z,73.43
2019-05-09T08:07:17.436Z,71.84
2019-05-09T08:08:15.355Z,72.75
2019-05-09T08:09:15.557Z,72.17
2019-05-09T08:10:17.537Z,69.47
2019-05-09T08:11:18.052Z,69.47
2019-05-09T08:12:17.969Z,68.38
2019-05-09T08:13:21.047Z,69.70
2019-05-09T08:14:17.741Z,69.74
2019-05-09T08:15:20.199Z,68.35
2019-05-09T08:16:18.595Z,68.25
2019-05-09T08:17:18.079Z,68.59
2019-05-09T08:18:18.197Z,68.49
2019-05-09T08:19:18.119Z,68.52
2019-05-09T08:20:18.520Z,67.00
2019-05-09T08:21:18.185Z,68.08
2019-05-09T08:22:24.910Z,66.77
2019-05-09T08:23:19.984Z,64.70
2019-05-09T08:24:18.423Z,64.70
2019-05-09T08:25:19.262Z,66.69
2019-05-09T08:26:18.990Z,68.52
2019-05-09T08:27:19.627Z,67.00
2019-05-09T08:28:20.164Z,65.27
2019-05-09T08:29:20.303Z,67.07
2019-05-09T08:30:20.074Z,68.39
2019-05-09T08:31:19.233Z,67.94
2019-05-09T08:32:19.427Z,66.72
2019-05-09T08:33:19.635Z,67.50
2019-05-09T08:34:19.905Z,66.19
2019-05-09T08:35:19.965Z,69.43
2019-05-09T08:36:20.427Z,68.42
2019-05-09T08:37:20.389Z,66.49
2019-05-09T08:38:20.559Z,67.51
2019-05-09T08:39:20.972Z,63.32
2019-05-09T08:40:21.537Z,65.97
2019-05-09T08:41:22.098Z,62.57
2019-05-09T08:42:21.223Z,65.81
2019-05-09T08:43:21.403Z,61.25
2019-05-09T08:44:21.601Z,61.36
2019-05-09T08:45:27.634Z,62.40
2019-05-09T08:46:23.930Z,60.38
2019-05-09T08:47:22.053Z,60.98
2019-05-09T08:48:22.203Z,61.41
2019-05-09T08:49:22.399Z,61.72
2019-05-09T08:50:22.580Z,62.49
2019-05-09T08:51:22.800Z,62.99
2019-05-09T08:52:22.990Z,62.72
2019-05-09T08:53:23.189Z,63.73
2019-05-09T08:54:23.357Z,62.49
2019-05-09T08:55:23.538Z,62.49
2019-05-09T08:56:23.792Z,62.43
2019-05-09T08:57:23.977Z,61.21
2019-05-09T08:58:24.163Z,60.41
2019-05-09T08:59:24.357Z,61.65
2019-05-09T09:00:24.508Z,61.59
2019-05-09T09:01:35.236Z,60.78
2019-05-09T09:02:28.334Z,62.16
2019-05-09T09:03:25.085Z,60.45
2019-05-09T09:04:25.262Z,60.48
2019-05-09T09:05:25.449Z,61.52
2019-05-09T09:06:27.775Z,61.32
2019-05-09T09:07:25.772Z,61.79
2019-05-09T09:08:28.341Z,60.81
2019-05-09T09:09:28.419Z,63.54
2019-05-09T09:10:28.495Z,61.36
2019-05-09T09:11:28.074Z,59.00
2019-05-09T09:12:34.109Z,57.89
2019-05-09T09:13:28.874Z,59.90
2019-05-09T09:14:28.092Z,61.41
2019-05-09T09:15:50.330Z,62.27
2019-05-09T09:16:29.418Z,60.12
2019-05-09T09:17:28.031Z,59.45
2019-05-09T09:18:28.652Z,56.76
2019-05-09T09:19:28.115Z,58.63
2019-05-09T09:20:29.104Z,59.48
2019-05-09T09:21:28.719Z,58.12
2019-05-09T09:22:29.337Z,57.97
2019-05-09T09:23:42.858Z,60.29
2019-05-09T09:24:30.656Z,58.25
2019-05-09T09:25:28.884Z,59.07
2019-05-09T09:26:28.953Z,56.80
2019-05-09T09:27:29.141Z,53.67
2019-05-09T09:28:29.352Z,53.92
2019-05-09T09:29:29.540Z,57.10
2019-05-09T09:30:30.010Z,56.29
2019-05-09T09:31:29.948Z,53.78
2019-05-09T09:32:31.107Z,52.67
2019-05-09T09:33:30.283Z,55.36
2019-05-09T09:34:30.520Z,59.08
2019-05-09T09:35:30.794Z,57.58
2019-05-09T09:36:30.970Z,55.29
2019-05-09T09:37:44.972Z,57.15
2019-05-09T09:38:33.284Z,54.55
2019-05-09T09:39:31.499Z,55.41
2019-05-09T09:40:31.700Z,52.94
2019-05-09T09:41:31.763Z,53.55
2019-05-09T09:42:31.973Z,53.40
2019-05-09T09:43:32.203Z,53.40
2019-05-09T09:44:32.430Z,53.90
2019-05-09T09:45:32.536Z,54.30
2019-05-09T09:46:32.743Z,54.68
2019-05-09T09:47:32.958Z,57.74
2019-05-09T09:48:33.193Z,57.76
2019-05-09T09:49:33.705Z,57.16
2019-05-09T09:50:33.569Z,56.51
2019-05-09T09:51:33.790Z,55.82
2019-05-09T09:52:34.574Z,57.16
2019-05-09T09:53:35.189Z,56.98
2019-05-09T09:54:34.356Z,59.06
2019-05-09T09:55:34.554Z,60.53
2019-05-09T09:56:34.764Z,62.86
2019-05-09T09:57:34.951Z,61.04
2019-05-09T09:58:35.141Z,62.35
2019-05-09T09:59:38.528Z,61.04
2019-05-09T10:00:38.204Z,63.64
2019-05-09T10:01:35.659Z,60.84
2019-05-09T10:02:37.839Z,59.45
2019-05-09T10:03:36.084Z,60.97
2019-05-09T10:04:37.554Z,59.45
2019-05-09T10:05:38.057Z,59.10
2019-05-09T10:06:38.800Z,60.11
2019-05-09T10:07:38.415Z,61.43
2019-05-09T10:08:39.720Z,62.66
2019-05-09T10:09:38.231Z,59.56
2019-05-09T10:10:37.374Z,59.25
2019-05-09T10:11:37.527Z,54.50
2019-05-09T10:12:43.552Z,53.27
2019-05-09T10:13:39.871Z,53.14
2019-05-09T10:14:37.991Z,53.14
2019-05-09T10:15:38.465Z,51.31
2019-05-09T10:16:39.323Z,51.46
2019-05-09T10:17:38.769Z,51.46
2019-05-09T10:18:39.605Z,49.88
2019-05-09T10:19:38.741Z,49.51
2019-05-09T10:20:38.993Z,50.11
2019-05-09T10:21:39.343Z,49.33
2019-05-09T10:22:46.521Z,50.66
2019-05-09T10:23:41.546Z,51.61
2019-05-09T10:24:39.771Z,49.55
2019-05-09T10:25:39.943Z,54.33
2019-05-09T10:26:40.227Z,52.09
2019-05-09T10:27:40.295Z,48.30
2019-05-09T10:28:40.465Z,48.65
2019-05-09T10:29:40.669Z,51.86
2019-05-09T10:30:40.867Z,49.08
2019-05-09T10:31:41.001Z,49.25
2019-05-09T10:32:41.168Z,51.16
2019-05-09T10:33:41.330Z,53.58
2019-05-09T10:34:41.502Z,53.55
2019-05-09T10:35:41.698Z,55.40
2019-05-09T10:36:41.914Z,57.24
2019-05-09T10:37:42.078Z,57.40
2019-05-09T10:38:43.227Z,58.34
2019-05-09T10:39:42.400Z,61.33
2019-05-09T10:40:42.614Z,60.62
2019-05-09T10:41:42.795Z,62.24
2019-05-09T10:42:42.956Z,61.56
2019-05-09T10:43:43.152Z,61.36
2019-05-09T10:44:43.358Z,63.62
2019-05-09T10:45:43.579Z,63.49
2019-05-09T10:46:52.591Z,64.81
2019-05-09T10:47:48.178Z,64.03
2019-05-09T10:48:44.013Z,62.84
2019-05-09T10:49:44.233Z,63.45
2019-05-09T10:50:46.132Z,64.49
2019-05-09T10:51:48.555Z,64.46
2019-05-09T10:52:44.800Z,65.99
2019-05-09T10:53:45.030Z,65.07
2019-05-09T10:54:45.215Z,64.97
2019-05-09T10:55:45.409Z,64.97
2019-05-09T10:56:45.627Z,63.85
2019-05-09T10:57:51.223Z,64.33
2019-05-09T10:58:48.267Z,62.81
2019-05-09T10:59:48.263Z,64.61
2019-05-09T11:00:48.328Z,62.98
2019-05-09T11:01:49.414Z,62.75
2019-05-09T11:02:48.322Z,63.26
2019-05-09T11:03:48.486Z,62.92
2019-05-09T11:04:49.139Z,61.44
2019-05-09T11:05:48.259Z,60.33
2019-05-09T11:06:47.397Z,61.79
2019-05-09T11:07:49.535Z,58.65
2019-05-09T11:08:48.042Z,58.76
2019-05-09T11:09:48.127Z,59.03
2019-05-09T11:10:48.961Z,57.09
2019-05-09T11:11:48.506Z,57.14
2019-05-09T11:12:49.310Z,55.31
2019-05-09T11:13:48.638Z,56.84
2019-05-09T11:14:48.689Z,53.75
2019-05-09T11:15:48.922Z,53.20
2019-05-09T11:16:54.309Z,50.29
2019-05-09T11:17:51.306Z,51.76
2019-05-09T11:18:49.410Z,53.09
2019-05-09T11:19:49.561Z,53.50
2019-05-09T11:20:49.755Z,51.39
2019-05-09T11:21:49.930Z,51.34
2019-05-09T11:22:50.095Z,51.29
2019-05-09T11:23:50.371Z,51.54
2019-05-09T11:24:51.248Z,51.54
2019-05-09T11:25:51.506Z,53.80
2019-05-09T11:26:50.750Z,55.84
2019-05-09T11:28:06.826Z,54.48
2019-05-09T11:28:53.110Z,53.90
2019-05-09T11:29:51.313Z,56.56
2019-05-09T11:30:51.358Z,59.08
2019-05-09T11:31:51.566Z,58.60
2019-05-09T11:32:51.735Z,59.51
2019-05-09T11:33:51.965Z,58.60
2019-05-09T11:34:52.169Z,57.62
2019-05-09T11:35:52.431Z,59.14
2019-05-09T11:36:52.523Z,59.27
2019-05-09T11:37:52.622Z,61.92
2019-05-09T11:38:52.970Z,63.64
2019-05-09T11:39:52.913Z,61.11
2019-05-09T11:40:53.071Z,61.32
2019-05-09T11:41:53.272Z,60.20
2019-05-09T11:42:53.421Z,59.42
2019-05-09T11:43:53.644Z,61.47
2019-05-09T11:44:53.834Z,63.30
2019-05-09T11:45:54.006Z,62.59
2019-05-09T11:46:54.230Z,63.09
2019-05-09T11:47:54.414Z,61.47
2019-05-09T11:48:54.613Z,62.59
2019-05-09T11:49:57.317Z,62.38
2019-05-09T11:50:57.732Z,63.12
2019-05-09T11:51:57.536Z,63.12
2019-05-09T11:52:55.355Z,63.83
2019-05-09T11:53:57.932Z,65.05
2019-05-09T11:54:57.901Z,63.69
2019-05-09T11:55:57.828Z,63.89
2019-05-09T11:56:57.660Z,65.14
2019-05-09T11:57:58.797Z,66.69
2019-05-09T11:58:57.883Z,66.69
2019-05-09T11:59:57.894Z,66.08
2019-05-09T12:00:57.661Z,66.22
2019-05-09T12:01:58.670Z,68.05
2019-05-09T12:02:58.267Z,67.16
2019-05-09T12:03:58.253Z,67.16
2019-05-09T12:04:57.394Z,68.92
2019-05-09T12:05:58.344Z,70.52
2019-05-09T12:06:58.761Z,68.28
2019-05-09T12:07:58.321Z,68.38
2019-05-09T12:08:59.244Z,67.54
2019-05-09T12:09:58.875Z,68.35
2019-05-09T12:10:59.427Z,67.74
2019-05-09T12:11:59.092Z,65.51
2019-05-09T12:12:59.731Z,67.24
2019-05-09T12:13:58.879Z,66.69
2019-05-09T12:14:59.048Z,65.91
2019-05-09T12:15:59.218Z,67.71
2019-05-09T12:16:59.359Z,65.65
2019-05-09T12:18:07.707Z,65.55
2019-05-09T12:19:01.639Z,65.11
2019-05-09T12:20:09.730Z,64.47
2019-05-09T12:21:02.052Z,64.24
2019-05-09T12:22:00.177Z,63.50
2019-05-09T12:23:00.331Z,64.92
2019-05-09T12:24:01.508Z,63.90
2019-05-09T12:25:00.680Z,63.47
2019-05-09T12:26:00.842Z,61.47
2019-05-09T12:27:03.029Z,62.49
2019-05-09T12:28:02.167Z,62.18
2019-05-09T12:29:01.334Z,63.32
2019-05-09T12:30:01.557Z,62.82
2019-05-09T12:31:01.760Z,61.30
2019-05-09T12:32:01.966Z,63.60
2019-05-09T12:33:02.153Z,61.55
2019-05-09T12:34:02.331Z,62.35
2019-05-09T12:35:02.813Z,61.52
2019-05-09T12:36:02.715Z,61.01
2019-05-09T12:37:02.918Z,60.84
2019-05-09T12:38:03.140Z,62.46
2019-05-09T12:39:03.342Z,62.33
2019-05-09T12:40:03.514Z,61.24
2019-05-09T12:41:03.860Z,61.24
2019-05-09T12:42:03.948Z,63.09
2019-05-09T12:43:04.145Z,61.00
2019-05-09T12:44:04.337Z,61.71
2019-05-09T12:45:04.491Z,61.40
2019-05-09T12:46:04.645Z,62.45
2019-05-09T12:47:04.828Z,63.69
2019-05-09T12:48:13.887Z,67.00
2019-05-09T12:49:08.932Z,65.79
2019-05-09T12:50:05.380Z,63.35
2019-05-09T12:51:08.088Z,64.10
2019-05-09T12:52:08.025Z,64.88
2019-05-09T12:53:05.868Z,66.70
2019-05-09T12:54:08.440Z,66.91
2019-05-09T12:55:08.189Z,64.58